Time;durP1;ratioP1;P1;durP2;ratioP2;P2;SDS_P1;SDS_P2;PMS_P1;PMS_P2;Temp;Humidity;BMP_temperature;BMP_pressure;BME280_temperature;BME280_humidity;BME280_pressure;Samples;Min_cycle;Max_cycle;Signal;HPM_P1;HPM_P2
2021/03/10 00:00:10;;;;;;;60.35;35.38;;;2.60;99.90;;;;;;6218124;23;20087;-89
2021/03/10 00:02:40;;;;;;;55.10;35.25;;;2.60;99.90;;;;;;6218808;23;20151;-91
2021/03/10 00:05:09;;;;;;;62.38;35.63;;;2.60;99.90;;;;;;6218846;23;20017;-90
2021/03/10 00:07:38;;;;;;;59.83;34.15;;;2.60;99.90;;;;;;6219311;23;20044;-90
2021/03/10 00:10:09;;;;;;;59.92;34.70;;;2.60;99.90;;;;;;6219405;23;20100;-88
2021/03/10 00:12:40;;;;;;;67.68;37.80;;;2.60;99.90;;;;;;6220584;23;20032;-89
2021/03/10 00:15:12;;;;;;;68.40;36.67;;;2.70;99.90;;;;;;6220443;23;20024;-88
2021/03/10 00:17:42;;;;;;;64.75;37.45;;;2.60;99.90;;;;;;6221032;23;20027;-90
2021/03/10 00:20:11;;;;;;;72.68;38.58;;;2.40;99.90;;;;;;6219200;23;20017;-90
2021/03/10 00:22:46;;;;;;;71.47;38.83;;;2.30;99.90;;;;;;6218131;23;20021;-90
2021/03/10 00:25:13;;;;;;;78.70;39.63;;;2.10;99.90;;;;;;6221374;23;20017;-90
2021/03/10 00:27:43;;;;;;;79.90;41.45;;;2.00;99.90;;;;;;6221686;23;20308;-89
2021/03/10 00:30:10;;;;;;;88.35;43.63;;;2.00;99.90;;;;;;6219529;23;20039;-89
2021/03/10 00:32:47;;;;;;;89.40;45.90;;;1.90;99.90;;;;;;6219669;23;20463;-91
2021/03/10 00:35:36;;;;;;;103.30;48.20;;;1.90;99.90;;;;;;6219227;23;20025;-91
2021/03/10 00:38:06;;;;;;;98.03;47.10;;;1.90;99.90;;;;;;6219584;23;20016;-90
2021/03/10 00:40:37;;;;;;;101.00;48.58;;;1.90;99.90;;;;;;6219471;23;20119;-89
2021/03/10 00:43:05;;;;;;;110.07;49.30;;;2.00;99.90;;;;;;6219250;23;20092;-90
2021/03/10 00:45:40;;;;;;;101.80;50.65;;;2.00;99.90;;;;;;6218165;23;20020;-91
2021/03/10 00:48:07;;;;;;;116.18;51.88;;;2.00;99.90;;;;;;6218909;23;20448;-90
2021/03/10 00:50:42;;;;;;;111.88;51.75;;;2.00;99.90;;;;;;6217913;23;20021;-91
2021/03/10 00:53:12;;;;;;;112.55;51.25;;;2.00;99.90;;;;;;6219222;23;20047;-88
2021/03/10 00:55:39;;;;;;;111.75;52.97;;;2.00;99.90;;;;;;6216786;23;20111;-88
2021/03/10 00:58:05;;;;;;;116.15;55.13;;;2.00;99.90;;;;;;6216847;23;20098;-88
2021/03/10 01:00:41;;;;;;;105.45;52.20;;;2.00;99.90;;;;;;6217026;23;20025;-86
2021/03/10 01:03:08;;;;;;;111.97;52.55;;;2.00;99.90;;;;;;6217176;23;20039;-88
2021/03/10 01:05:47;;;;;;;114.18;55.38;;;2.00;99.90;;;;;;6217343;23;20031;-87
2021/03/10 01:08:14;;;;;;;113.20;53.42;;;2.00;99.90;;;;;;6219640;23;20032;-87
2021/03/10 01:10:40;;;;;;;115.97;53.92;;;2.00;99.90;;;;;;6217105;23;20078;-88
2021/03/10 01:13:09;;;;;;;111.28;54.22;;;1.90;99.90;;;;;;6218109;23;20040;-87
2021/03/10 01:15:36;;;;;;;112.53;54.00;;;1.90;99.90;;;;;;6217456;23;20103;-88
2021/03/10 01:18:03;;;;;;;121.50;56.08;;;1.90;99.90;;;;;;6215503;23;20017;-88
2021/03/10 01:20:30;;;;;;;115.90;54.60;;;1.90;99.90;;;;;;6215003;23;20017;-88
2021/03/10 01:22:57;;;;;;;120.18;55.28;;;1.90;99.90;;;;;;6216666;23;20111;-89
2021/03/10 01:25:24;;;;;;;112.25;51.42;;;1.90;99.90;;;;;;6216659;23;20017;-89
2021/03/10 01:27:51;;;;;;;112.07;51.58;;;1.80;99.90;;;;;;6216893;23;20035;-89
2021/03/10 01:30:20;;;;;;;114.72;54.33;;;1.80;99.90;;;;;;6216967;23;20090;-89
2021/03/10 01:32:47;;;;;;;106.55;52.33;;;1.70;99.90;;;;;;6216151;23;20094;-87
2021/03/10 01:35:14;;;;;;;112.38;52.95;;;1.70;99.90;;;;;;6217393;23;20024;-87
2021/03/10 01:37:41;;;;;;;113.82;53.30;;;1.60;99.90;;;;;;6215614;23;20016;-88
2021/03/10 01:40:12;;;;;;;108.07;52.88;;;1.50;99.90;;;;;;6215362;23;20462;-87
2021/03/10 01:42:41;;;;;;;102.43;51.53;;;1.50;99.90;;;;;;6216986;23;20048;-88
2021/03/10 01:45:09;;;;;;;117.88;52.80;;;1.40;99.90;;;;;;6215607;23;20146;-87
2021/03/10 01:47:40;;;;;;;111.25;52.13;;;1.40;99.90;;;;;;6216024;23;20052;-85
2021/03/10 01:50:08;;;;;;;123.25;55.30;;;1.40;99.90;;;;;;6216607;23;20300;-88
2021/03/10 01:52:36;;;;;;;113.32;54.53;;;1.40;99.90;;;;;;6216446;23;20419;-87
2021/03/10 01:55:04;;;;;;;112.60;53.83;;;1.40;99.90;;;;;;6215671;23;20028;-88
2021/03/10 01:57:39;;;;;;;125.88;58.05;;;1.40;99.90;;;;;;6216650;23;20048;-87
2021/03/10 02:00:08;;;;;;;128.88;57.53;;;1.40;99.90;;;;;;6216874;23;20017;-87
2021/03/10 02:02:40;;;;;;;128.98;58.22;;;1.40;99.90;;;;;;6216675;23;20324;-89
2021/03/10 02:05:12;;;;;;;143.90;60.25;;;1.50;99.90;;;;;;6216441;23;20147;-87
2021/03/10 02:07:57;;;;;;;135.20;59.27;;;1.50;99.90;;;;;;6216590;23;20065;-86
2021/03/10 02:10:53;;;;;;;137.35;59.03;;;1.70;99.90;;;;;;6216559;23;20024;-86
2021/03/10 02:13:48;;;;;;;130.68;57.45;;;1.70;99.90;;;;;;6216290;23;20043;-86
2021/03/10 02:16:40;;;;;;;136.00;57.70;;;1.80;99.90;;;;;;6216453;23;20384;-87
2021/03/10 02:19:12;;;;;;;132.63;56.97;;;1.80;99.90;;;;;;6239485;23;20032;-87
2021/03/10 02:21:56;;;;;;;122.20;54.08;;;1.90;99.90;;;;;;6226728;23;20117;-88
2021/03/10 02:24:46;;;;;;;126.90;56.33;;;1.90;99.90;;;;;;6222641;23;20050;-87
2021/03/10 02:27:45;;;;;;;122.78;55.88;;;1.80;99.90;;;;;;6221653;23;20024;-87
2021/03/10 02:30:20;;;;;;;125.60;54.42;;;1.80;99.90;;;;;;6230924;23;20083;-87
2021/03/10 02:33:03;;;;;;;114.20;54.03;;;1.70;99.90;;;;;;6221233;23;20293;-87
2021/03/10 02:35:32;;;;;;;123.75;54.45;;;1.80;99.90;;;;;;6226911;23;20024;-87
2021/03/10 02:38:05;;;;;;;126.63;55.30;;;1.80;99.90;;;;;;6221511;23;20016;-87
2021/03/10 02:40:33;;;;;;;127.78;54.00;;;1.90;99.90;;;;;;6222044;23;20075;-86
2021/03/10 02:43:00;;;;;;;115.60;53.83;;;1.90;99.90;;;;;;6218958;23;20100;-87
2021/03/10 02:45:28;;;;;;;112.63;52.85;;;2.00;99.90;;;;;;6220121;23;20036;-87
2021/03/10 02:48:00;;;;;;;109.38;52.90;;;2.00;99.90;;;;;;6218877;23;20086;-86
2021/03/10 02:50:27;;;;;;;118.55;53.55;;;2.00;99.90;;;;;;6222262;23;20108;-87
2021/03/10 02:52:59;;;;;;;115.80;52.03;;;2.00;99.90;;;;;;6220322;23;20078;-85
2021/03/10 02:55:26;;;;;;;105.47;50.72;;;2.00;99.90;;;;;;6218436;23;20028;-86
2021/03/10 02:57:53;;;;;;;107.68;51.25;;;2.00;99.90;;;;;;6217192;23;20396;-87
2021/03/10 03:00:24;;;;;;;97.45;50.22;;;2.00;99.90;;;;;;6215416;23;20435;-87
2021/03/10 03:02:50;;;;;;;107.90;51.38;;;1.90;99.90;;;;;;6214686;23;20059;-86
2021/03/10 03:05:17;;;;;;;106.63;51.72;;;2.00;99.90;;;;;;6214708;23;20016;-88
2021/03/10 03:07:46;;;;;;;107.93;53.13;;;2.00;99.90;;;;;;6215285;23;20028;-86
2021/03/10 03:10:22;;;;;;;106.13;53.97;;;2.00;99.90;;;;;;6214698;23;20392;-86
2021/03/10 03:12:49;;;;;;;114.10;52.92;;;2.10;99.90;;;;;;6213086;23;20024;-87
2021/03/10 03:15:17;;;;;;;109.50;52.15;;;2.10;99.90;;;;;;6213160;23;20135;-86
2021/03/10 03:17:45;;;;;;;113.55;52.85;;;2.10;99.90;;;;;;6214356;23;20021;-88
2021/03/10 03:20:15;;;;;;;110.40;52.72;;;2.10;99.90;;;;;;6213695;23;20056;-86
2021/03/10 03:22:48;;;;;;;105.72;52.15;;;2.10;99.90;;;;;;6213633;23;20297;-87
2021/03/10 03:25:36;;;;;;;108.95;52.15;;;2.10;99.90;;;;;;6213692;23;20679;-87
2021/03/10 03:28:05;;;;;;;106.20;52.58;;;2.10;99.90;;;;;;6215174;23;20024;-86
2021/03/10 03:30:34;;;;;;;111.93;53.33;;;2.10;99.90;;;;;;6214640;23;20359;-88
2021/03/10 03:33:01;;;;;;;113.40;52.60;;;2.10;99.90;;;;;;6213132;23;20350;-86
2021/03/10 03:35:28;;;;;;;108.05;50.00;;;2.10;99.90;;;;;;6214103;23;20031;-85
2021/03/10 03:37:59;;;;;;;104.45;49.47;;;2.00;99.90;;;;;;6215810;23;20392;-86
2021/03/10 03:40:26;;;;;;;113.32;52.42;;;2.00;99.90;;;;;;6214351;23;20116;-86
2021/03/10 03:42:52;;;;;;;113.10;53.83;;;2.00;99.90;;;;;;6216769;23;20404;-87
2021/03/10 03:45:21;;;;;;;105.15;50.22;;;2.00;99.90;;;;;;6228523;23;20377;-88
2021/03/10 03:47:50;;;;;;;111.80;51.13;;;2.00;99.90;;;;;;6222517;23;20028;-89
2021/03/10 03:50:17;;;;;;;119.45;53.10;;;2.00;99.90;;;;;;6226894;23;20028;-88
2021/03/10 03:52:46;;;;;;;106.15;50.47;;;1.90;99.90;;;;;;6256331;23;20025;-86
2021/03/10 03:55:14;;;;;;;113.28;52.17;;;1.90;99.90;;;;;;6223284;23;20024;-87
2021/03/10 03:57:41;;;;;;;124.78;53.63;;;1.90;99.90;;;;;;6219228;23;20072;-89
2021/03/10 04:00:18;;;;;;;114.07;53.28;;;1.90;99.90;;;;;;6217998;23;20017;-86
2021/03/10 04:02:45;;;;;;;119.65;53.90;;;1.80;99.90;;;;;;6218147;23;20020;-87
2021/03/10 04:05:14;;;;;;;125.75;54.33;;;1.80;99.90;;;;;;6219082;23;20021;-86
2021/03/10 04:08:02;;;;;;;124.93;56.72;;;1.80;99.90;;;;;;6216965;23;20021;-88
2021/03/10 04:10:40;;;;;;;122.40;54.83;;;1.80;99.90;;;;;;6217947;23;20052;-87
2021/03/10 04:13:09;;;;;;;125.03;55.10;;;1.80;99.90;;;;;;6218040;23;20048;-88
2021/03/10 04:15:39;;;;;;;130.88;56.15;;;1.80;99.90;;;;;;6215440;23;20416;-86
2021/03/10 04:18:06;;;;;;;130.57;57.22;;;1.80;99.90;;;;;;6240971;23;20021;-86
2021/03/10 04:20:38;;;;;;;131.40;58.50;;;1.80;99.90;;;;;;6216310;23;20041;-87
2021/03/10 04:23:10;;;;;;;129.60;56.45;;;1.70;99.90;;;;;;6216610;23;20313;-87
2021/03/10 04:25:37;;;;;;;96.30;45.67;;;1.60;99.90;;;;;;6216105;23;20025;-87
2021/03/10 04:28:03;;;;;;;126.72;55.45;;;1.60;99.90;;;;;;6215709;23;20314;-87
2021/03/10 04:30:30;;;;;;;131.75;56.08;;;1.60;99.90;;;;;;6215833;23;20028;-86
2021/03/10 04:32:58;;;;;;;131.93;57.60;;;1.60;99.90;;;;;;6217180;23;20020;-87
2021/03/10 04:35:26;;;;;;;135.85;57.28;;;1.60;99.90;;;;;;6216801;23;20051;-86
2021/03/10 04:37:53;;;;;;;129.88;56.47;;;1.60;99.90;;;;;;6217017;23;20021;-87
2021/03/10 04:40:20;;;;;;;136.05;58.13;;;1.50;99.90;;;;;;6216927;23;20091;-86
2021/03/10 04:42:48;;;;;;;137.77;57.63;;;1.50;99.90;;;;;;6217191;23;20044;-87
2021/03/10 04:45:17;;;;;;;137.50;57.08;;;1.50;99.90;;;;;;6218007;23;20024;-86
2021/03/10 04:47:47;;;;;;;136.23;58.83;;;1.50;99.90;;;;;;6218298;23;20047;-86
2021/03/10 04:50:16;;;;;;;138.10;57.63;;;1.40;99.90;;;;;;6217905;23;20043;-86
2021/03/10 04:52:45;;;;;;;133.43;56.58;;;1.40;99.90;;;;;;6219884;23;20067;-86
2021/03/10 04:55:12;;;;;;;141.07;57.75;;;1.40;99.90;;;;;;6221057;23;20024;-87
2021/03/10 04:57:40;;;;;;;142.48;61.53;;;1.30;99.90;;;;;;6224516;23;20095;-87
2021/03/10 05:00:10;;;;;;;141.25;61.63;;;1.20;99.90;;;;;;6196620;23;20016;-86
2021/03/10 05:02:37;;;;;;;140.80;58.90;;;1.20;99.90;;;;;;6224745;23;20017;-86
2021/03/10 05:05:06;;;;;;;145.00;59.15;;;1.10;99.90;;;;;;6218439;23;20021;-86
2021/03/10 05:07:38;;;;;;;151.65;59.10;;;1.10;99.90;;;;;;6217532;23;20059;-87
2021/03/10 05:10:08;;;;;;;142.77;58.40;;;1.10;99.90;;;;;;6217258;23;20120;-86
2021/03/10 05:12:37;;;;;;;150.95;59.33;;;1.00;99.90;;;;;;6216398;23;20025;-88
2021/03/10 05:15:05;;;;;;;167.55;60.63;;;1.00;99.90;;;;;;6216895;23;20025;-87
2021/03/10 05:17:38;;;;;;;148.75;59.75;;;1.00;99.90;;;;;;6241665;23;20016;-87
2021/03/10 05:20:21;;;;;;;151.70;60.00;;;1.10;99.90;;;;;;6245098;23;20044;-86
2021/03/10 05:22:49;;;;;;;152.60;61.97;;;1.10;99.90;;;;;;6244936;23;20048;-86
2021/03/10 05:25:16;;;;;;;152.38;61.33;;;1.10;99.90;;;;;;6245373;23;20044;-87
2021/03/10 05:27:48;;;;;;;155.88;64.85;;;1.20;99.90;;;;;;6244990;23;20067;-88
2021/03/10 05:30:16;;;;;;;150.17;62.80;;;1.20;99.90;;;;;;6244902;23;20304;-86
2021/03/10 05:32:43;;;;;;;141.57;60.10;;;1.30;99.90;;;;;;6244819;23;20020;-86
2021/03/10 05:35:09;;;;;;;150.18;59.83;;;1.30;99.90;;;;;;6244778;23;20107;-85
2021/03/10 05:37:38;;;;;;;142.00;61.17;;;1.40;99.90;;;;;;6220192;23;20405;-88
2021/03/10 05:40:05;;;;;;;147.25;58.88;;;1.40;99.90;;;;;;6245256;23;20027;-86
2021/03/10 05:42:34;;;;;;;134.70;56.67;;;1.40;99.90;;;;;;6245036;23;20028;-87
2021/03/10 05:45:01;;;;;;;131.95;57.22;;;1.50;99.90;;;;;;6219482;23;20091;-86
2021/03/10 05:47:28;;;;;;;130.55;57.15;;;1.50;99.90;;;;;;6249727;23;20074;-87
2021/03/10 05:49:57;;;;;;;129.02;55.30;;;1.50;99.90;;;;;;6247470;23;20088;-87
2021/03/10 05:52:24;;;;;;;127.13;55.25;;;1.60;99.90;;;;;;6192239;23;20024;-87
2021/03/10 05:54:54;;;;;;;125.22;54.58;;;1.50;99.90;;;;;;6218179;23;20063;-87
2021/03/10 05:57:21;;;;;;;121.25;54.08;;;1.50;99.90;;;;;;6218636;23;20067;-86
2021/03/10 05:59:49;;;;;;;118.25;53.70;;;1.60;99.90;;;;;;6218614;23;20093;-88
2021/03/10 06:02:16;;;;;;;124.60;56.13;;;1.60;99.90;;;;;;6222465;23;20020;-87
2021/03/10 06:04:43;;;;;;;117.93;52.28;;;1.60;99.90;;;;;;6221429;23;20016;-88
2021/03/10 06:07:20;;;;;;;122.30;53.92;;;1.70;99.90;;;;;;6220779;23;20021;-89
2021/03/10 06:10:00;;;;;;;116.40;50.92;;;1.70;99.90;;;;;;6222468;23;20020;-88
2021/03/10 06:12:45;;;;;;;119.30;52.57;;;1.70;99.90;;;;;;6221168;23;20044;-89
2021/03/10 06:15:13;;;;;;;113.55;52.58;;;1.70;99.90;;;;;;6218552;23;20021;-87
2021/03/10 06:17:48;;;;;;;111.80;53.88;;;1.80;99.90;;;;;;6218449;23;20086;-87
2021/03/10 06:20:25;;;;;;;110.05;50.53;;;1.80;99.90;;;;;;6216203;23;20034;-86
2021/03/10 06:22:53;;;;;;;110.40;51.45;;;1.80;99.90;;;;;;6218811;23;20025;-86
2021/03/10 06:25:22;;;;;;;106.88;49.47;;;1.90;99.90;;;;;;6216583;23;20020;-84
2021/03/10 06:27:56;;;;;;;104.57;51.05;;;1.90;99.90;;;;;;6216412;23;20024;-87
2021/03/10 06:30:43;;;;;;;108.10;52.80;;;1.90;99.90;;;;;;6215680;23;20066;-87
2021/03/10 06:33:24;;;;;;;112.78;49.92;;;2.00;99.90;;;;;;6214891;23;20427;-86
2021/03/10 06:35:51;;;;;;;104.38;49.17;;;2.00;99.90;;;;;;6240838;23;20404;-85
2021/03/10 06:38:19;;;;;;;96.97;48.08;;;2.10;99.90;;;;;;6219331;23;20024;-86
2021/03/10 06:40:57;;;;;;;104.05;49.05;;;2.10;99.90;;;;;;6229263;23;20017;-86
2021/03/10 06:43:39;;;;;;;91.32;45.88;;;2.20;99.90;;;;;;6228485;23;20083;-85
2021/03/10 06:46:13;;;;;;;96.53;45.78;;;2.20;99.90;;;;;;6230616;23;20126;-86
2021/03/10 06:48:56;;;;;;;93.68;44.80;;;2.30;99.90;;;;;;6235265;23;20027;-87
2021/03/10 06:51:24;;;;;;;90.13;44.95;;;2.30;99.90;;;;;;6231925;23;20054;-83
2021/03/10 06:53:54;;;;;;;86.40;44.58;;;2.30;99.90;;;;;;6245024;23;20372;-86
2021/03/10 06:56:26;;;;;;;88.50;44.03;;;2.40;99.90;;;;;;6216923;23;20028;-86
2021/03/10 06:59:00;;;;;;;68.03;33.33;;;2.40;99.90;;;;;;6216840;23;20484;-85
2021/03/10 07:01:41;;;;;;;90.03;43.85;;;2.50;99.90;;;;;;6213973;23;20400;-85
2021/03/10 07:04:12;;;;;;;90.50;44.55;;;2.50;99.90;;;;;;6215542;23;20032;-85
2021/03/10 07:06:56;;;;;;;100.07;47.38;;;2.50;99.90;;;;;;6216477;23;20036;-85
2021/03/10 07:09:45;;;;;;;86.95;43.75;;;2.60;99.90;;;;;;6192094;23;20020;-92
2021/03/10 07:12:16;;;;;;;87.43;44.83;;;2.60;99.90;;;;;;6210794;23;20320;-89
2021/03/10 07:14:49;;;;;;;87.60;44.60;;;2.70;99.90;;;;;;6218957;23;20056;-90
2021/03/10 07:17:48;;;;;;;;;;;;;;;;;;;;;
2021/03/10 07:20:20;;;;;;;92.93;44.92;;;2.70;99.90;;;;;;6216939;23;20003;-89
2021/03/10 07:23:05;;;;;;;86.97;44.15;;;2.70;99.90;;;;;;6241038;23;20523;-87
2021/03/10 07:25:41;;;;;;;92.70;45.95;;;2.70;99.90;;;;;;6217513;23;20059;-88
2021/03/10 07:28:15;;;;;;;85.20;44.50;;;2.70;99.90;;;;;;6216560;23;20036;-90
2021/03/10 07:30:49;;;;;;;87.05;45.45;;;2.80;99.90;;;;;;6243374;23;20297;-90
2021/03/10 07:33:23;;;;;;;87.80;45.38;;;2.90;99.90;;;;;;6226874;23;20020;-90
2021/03/10 07:36:00;;;;;;;98.35;48.15;;;3.10;99.90;;;;;;6227540;23;20028;-90
2021/03/10 07:38:36;;;;;;;92.57;49.60;;;3.20;99.90;;;;;;6235514;23;20028;-90
2021/03/10 07:41:09;;;;;;;90.60;45.72;;;3.40;99.90;;;;;;6230986;23;20028;-90
2021/03/10 07:43:39;;;;;;;88.13;47.03;;;3.40;99.90;;;;;;6230167;23;20100;-90
2021/03/10 07:46:29;;;;;;;92.55;46.53;;;3.50;99.90;;;;;;6218402;23;20020;-88
2021/03/10 07:49:15;;;;;;;95.85;47.63;;;3.60;99.90;;;;;;6222089;23;20032;-90
2021/03/10 07:51:42;;;;;;;95.78;48.85;;;3.50;99.90;;;;;;6220065;23;20016;-89
2021/03/10 07:54:30;;;;;;;96.28;49.17;;;3.60;99.90;;;;;;6218813;23;20024;-90
2021/03/10 07:57:19;;;;;;;100.30;49.42;;;3.60;99.90;;;;;;6219680;23;20090;-88
2021/03/10 08:00:00;;;;;;;95.97;48.75;;;3.60;99.90;;;;;;6216625;23;20078;-90
2021/03/10 08:03:05;;;;;;;92.10;48.13;;;3.60;99.90;;;;;;6226823;23;20297;-89
2021/03/10 08:05:39;;;;;;;94.20;48.60;;;3.60;99.90;;;;;;6223274;23;20016;-89
2021/03/10 08:08:15;;;;;;;105.13;50.28;;;3.70;99.90;;;;;;6223092;23;20031;-88
2021/03/10 08:11:08;;;;;;;;;;;3.70;99.90;;;;;;6240270;23;20320;-89
2021/03/10 08:14:20;;;;;;;106.05;49.05;;;3.70;99.90;;;;;;6216146;23;19994;-89
2021/03/10 08:17:05;;;;;;;96.18;49.55;;;3.80;99.90;;;;;;6202390;23;20389;-89
2021/03/10 08:20:06;;;;;;;102.97;50.10;;;4.00;99.90;;;;;;6223834;23;20070;-91
2021/03/10 08:23:28;;;;;;;;;;;;;;;;;;;;;
2021/03/10 08:26:57;;;;;;;96.72;46.88;;;4.50;99.90;;;;;;6217409;23;20099;-90
2021/03/10 08:33:25;;;;;;;86.03;44.03;;;5.10;99.90;;;;;;6220511;23;20028;-90
2021/03/10 08:36:11;;;;;;;;;;;;;;;;;;;;;
2021/03/10 08:39:46;;;;;;;;;;;;;;;;;;;;;
2021/03/10 08:43:08;;;;;;;81.30;42.90;;;5.70;99.90;;;;;;6191025;23;20013;-89
2021/03/10 08:45:57;;;;;;;81.30;44.55;;;5.90;99.90;;;;;;6201993;23;20031;-89
2021/03/10 08:49:16;;;;;;;;;;;;;;;;;;;;;
2021/03/10 08:52:30;;;;;;;73.53;39.70;;;6.20;99.90;;;;;;6176326;23;20100;-90
2021/03/10 08:55:25;;;;;;;76.20;39.70;;;6.30;99.90;;;;;;6155931;23;20256;-87
2021/03/10 08:57:53;;;;;;;65.43;37.25;;;6.20;99.90;;;;;;6173632;23;20052;-88
2021/03/10 09:00:33;;;;;;;77.15;39.65;;;5.90;99.90;;;;;;6161744;23;20176;-88
2021/03/10 09:03:19;;;;;;;74.72;40.17;;;5.80;99.90;;;;;;6157158;23;20344;-87
2021/03/10 09:05:59;;;;;;;;;;;5.60;99.90;;;;;;6157225;23;20017;-86
2021/03/10 09:08:26;;;;;;;68.72;37.75;;;5.60;99.90;;;;;;6132944;23;19916;-87
2021/03/10 09:10:55;;;;;;;76.28;38.65;;;5.60;99.90;;;;;;6159317;23;20029;-89
2021/03/10 09:13:22;;;;;;;70.38;37.85;;;5.60;99.90;;;;;;6195766;23;20295;-87
2021/03/10 09:15:52;;;;;;;64.57;38.38;;;5.70;99.90;;;;;;6202056;23;20078;-87
2021/03/10 09:18:19;;;;;;;64.60;36.88;;;5.70;99.90;;;;;;6203383;23;20324;-87
2021/03/10 09:20:47;;;;;;;72.10;39.03;;;5.70;99.90;;;;;;6206531;23;20359;-87
2021/03/10 09:23:26;;;;;;;70.15;39.20;;;5.70;99.90;;;;;;6206629;23;20075;-87
2021/03/10 09:28:48;;;;;;;67.90;36.95;;;5.90;99.90;;;;;;6223411;23;20035;-90
2021/03/10 09:31:29;;;;;;;;;;;;;;;;;;;;;
2021/03/10 09:34:13;;;;;;;64.32;35.78;;;6.00;99.90;;;;;;6222475;23;20028;-91
2021/03/10 09:36:42;;;;;;;65.07;34.28;;;5.90;99.90;;;;;;6195983;23;20393;-89
2021/03/10 09:39:13;;;;;;;55.17;32.97;;;6.30;99.90;;;;;;6222594;23;20020;-91
2021/03/10 09:42:31;;;;;;;;;;;;;;;;;;;;;
2021/03/10 09:45:25;;;;;;;57.15;32.90;;;6.90;99.90;;;;;;6100729;23;20029;-90
2021/03/10 09:48:05;;;;;;;51.90;31.45;;;7.20;99.90;;;;;;6100622;23;20026;-90
2021/03/10 09:50:44;;;;;;;51.95;30.00;;;7.70;99.90;;;;;;6098317;23;20081;-90
2021/03/10 09:53:24;;;;;;;48.55;29.40;;;8.10;99.90;;;;;;6103956;23;20335;-90
2021/03/10 09:56:10;;;;;;;44.22;28.27;;;8.50;99.90;;;;;;6099207;23;20065;-90
2021/03/10 09:59:03;;;;;;;45.85;27.75;;;9.00;99.90;;;;;;6103151;23;20026;-89
2021/03/10 10:01:57;;;;;;;44.17;28.00;;;10.30;98.50;;;;;;6218573;23;20068;-90
2021/03/10 10:04:36;;;;;;;40.13;25.33;;;11.60;90.60;;;;;;6209416;23;20091;-88
2021/03/10 10:07:21;;;;;;;39.83;25.17;;;11.60;80.90;;;;;;6219164;23;20021;-90
2021/03/10 10:09:50;;;;;;;38.15;25.00;;;11.90;81.80;;;;;;6222688;23;20025;-91
2021/03/10 10:12:48;;;;;;;38.03;24.95;;;12.10;80.50;;;;;;6198203;23;20265;-90
2021/03/10 10:15:21;;;;;;;37.63;25.42;;;12.50;75.00;;;;;;6222988;23;20404;-90
2021/03/10 10:17:50;;;;;;;41.80;24.85;;;13.00;73.60;;;;;;6220471;23;20472;-90
2021/03/10 10:20:19;;;;;;;31.98;20.85;;;13.50;70.00;;;;;;6216549;23;20017;-91
2021/03/10 10:22:46;;;;;;;32.55;23.13;;;14.10;63.80;;;;;;6217190;23;20127;-90
2021/03/10 10:25:17;;;;;;;28.40;19.58;;;14.00;63.60;;;;;;6191364;23;20017;-90
2021/03/10 10:27:48;;;;;;;31.92;22.20;;;13.90;61.70;;;;;;6217158;23;20036;-91
2021/03/10 10:30:18;;;;;;;32.70;22.75;;;13.50;63.30;;;;;;6190575;23;20136;-90
2021/03/10 10:32:52;;;;;;;25.13;17.33;;;12.70;63.80;;;;;;6184816;23;20654;-89
2021/03/10 10:35:20;;;;;;;32.78;20.75;;;11.90;63.30;;;;;;6215851;23;20028;-89
2021/03/10 10:37:47;;;;;;;31.50;20.05;;;10.90;67.40;;;;;;6215859;23;20021;-89
2021/03/10 10:40:19;;;;;;;32.85;21.20;;;10.00;71.20;;;;;;6216002;23;20020;-89
2021/03/10 10:43:05;;;;;;;32.00;19.92;;;9.20;75.10;;;;;;6216047;23;20320;-89
2021/03/10 10:45:37;;;;;;;33.67;21.23;;;8.60;79.60;;;;;;6216700;23;20155;-89
2021/03/10 10:48:05;;;;;;;26.60;17.48;;;8.50;87.40;;;;;;6206046;23;20020;-88
2021/03/10 10:50:37;;;;;;;22.35;14.55;;;8.20;85.20;;;;;;6189819;23;20028;-88
2021/03/10 10:53:06;;;;;;;24.88;15.65;;;7.70;81.50;;;;;;6195300;23;20017;-91
2021/03/10 10:55:43;;;;;;;29.13;15.70;;;7.40;85.70;;;;;;6194686;23;20025;-90
2021/03/10 10:58:10;;;;;;;29.13;15.40;;;7.30;88.00;;;;;;6166104;23;20754;-89
2021/03/10 11:00:42;;;;;;;30.17;17.17;;;7.20;90.50;;;;;;6192351;23;20056;-90
2021/03/10 11:03:16;;;;;;;28.65;17.80;;;7.00;92.80;;;;;;6191734;23;20021;-89
2021/03/10 11:05:55;;;;;;;29.17;17.75;;;7.00;96.30;;;;;;6168403;23;20017;-92
2021/03/10 11:08:47;;;;;;;32.25;18.65;;;7.10;97.40;;;;;;6040116;23;20027;-91
2021/03/10 11:11:18;;;;;;;30.77;18.65;;;7.30;98.00;;;;;;6071199;23;20030;-92
2021/03/10 11:14:09;;;;;;;32.00;18.58;;;7.30;96.70;;;;;;6074407;23;20027;-90
2021/03/10 11:16:56;;;;;;;;;;;;;;;;;;;;;
2021/03/10 11:19:38;;;;;;;26.85;16.05;;;7.70;95.70;;;;;;6083678;23;20103;-90
2021/03/10 11:25:16;;;;;;;;;;;;;;;;;;;;;
2021/03/10 11:27:57;;;;;;;27.25;17.10;;;8.20;89.30;;;;;;6253785;23;20043;-91
2021/03/10 11:30:58;;;;;;;;;;;;;;;;;;;;;
2021/03/10 11:33:48;;;;;;;;;;;;;;;;;;;;;
2021/03/10 11:37:07;;;;;;;24.05;14.32;;;8.30;87.90;;;;;;6113199;23;20029;-92
2021/03/10 11:40:47;;;;;;;;;;;;;;;;;;;;;
2021/03/10 11:43:41;;;;;;;;;;;;;;;;;;;;;
2021/03/10 11:47:29;;;;;;;22.23;13.23;;;9.10;77.20;;;;;;6095406;23;20033;-91
2021/03/10 11:50:03;;;;;;;26.95;15.48;;;9.20;79.00;;;;;;6135873;23;20009;-92
2021/03/10 11:52:39;;;;;;;25.00;16.15;;;8.80;77.90;;;;;;6187368;23;20021;-92
2021/03/10 11:58:40;;;;;;;;;;;;;;;;;;;;;
2021/03/10 12:02:01;;;;;;;26.98;15.85;;;8.20;88.60;;;;;;6054874;23;20027;-92
2021/03/10 12:04:40;;;;;;;26.25;15.48;;;8.20;86.40;;;;;;6066801;23;20026;-92
2021/03/10 12:07:22;;;;;;;24.60;14.93;;;8.20;87.30;;;;;;6063977;23;20023;-93
2021/03/10 12:09:59;;;;;;;24.38;15.00;;;8.30;84.20;;;;;;6080883;23;20021;-92
2021/03/10 12:13:14;;;;;;;23.88;15.15;;;8.20;83.20;;;;;;6127477;23;20032;-94
2021/03/10 12:15:45;;;;;;;23.40;13.70;;;8.30;85.00;;;;;;6126498;23;20086;-92
2021/03/10 12:22:18;;;;;;;22.75;13.68;;;8.20;84.20;;;;;;6079158;23;20050;-92
2021/03/10 12:24:51;;;;;;;26.30;13.60;;;8.20;80.00;;;;;;6160592;23;20489;-93
2021/03/10 12:31:05;;;;;;;20.77;12.55;;;8.70;77.90;;;;;;6063194;23;20259;-90
2021/03/10 12:33:44;;;;;;;22.38;12.82;;;9.30;76.30;;;;;;6164228;23;20021;-91
2021/03/10 12:36:10;;;;;;;17.67;12.00;;;9.60;73.00;;;;;;6157683;23;20029;-90
2021/03/10 12:38:38;;;;;;;15.38;10.50;;;10.40;68.20;;;;;;6156745;23;20041;-92
2021/03/10 12:41:10;;;;;;;;;;;11.70;62.20;;;;;;6157864;23;20221;-89
2021/03/10 12:43:51;;;;;;;15.65;10.48;;;12.70;55.90;;;;;;6142437;23;19935;-90
2021/03/10 12:46:18;;;;;;;12.93;8.75;;;12.80;55.10;;;;;;6157808;23;20022;-89
2021/03/10 12:48:47;;;;;;;15.23;8.73;;;13.80;52.30;;;;;;6200568;23;20028;-89
2021/03/10 12:51:13;;;;;;;11.95;8.27;;;13.90;51.30;;;;;;6225081;23;20089;-85
2021/03/10 12:53:45;;;;;;;12.95;8.93;;;13.40;51.30;;;;;;6248756;23;20028;-88
2021/03/10 12:56:12;;;;;;;10.50;7.15;;;13.40;52.40;;;;;;6223273;23;20035;-87
2021/03/10 12:58:41;;;;;;;11.73;6.65;;;13.80;51.40;;;;;;6249714;23;20016;-89
2021/03/10 13:01:09;;;;;;;11.65;7.88;;;13.40;49.70;;;;;;6223741;23;20048;-87
2021/03/10 13:03:38;;;;;;;10.15;7.07;;;13.00;50.00;;;;;;6251723;23;20031;-90
2021/03/10 13:06:11;;;;;;;8.65;6.63;;;12.60;51.30;;;;;;6251061;23;20074;-90
2021/03/10 13:08:44;;;;;;;9.98;6.70;;;11.80;52.30;;;;;;6202862;23;20076;-88
2021/03/10 13:11:11;;;;;;;11.20;7.20;;;11.20;53.20;;;;;;6260784;23;20024;-89
2021/03/10 13:13:37;;;;;;;10.43;7.03;;;10.80;55.00;;;;;;6251110;23;20043;-90
2021/03/10 13:16:06;;;;;;;12.38;6.80;;;10.60;55.30;;;;;;6251151;23;20081;-90
2021/03/10 13:18:40;;;;;;;10.70;7.25;;;10.80;57.50;;;;;;6253596;23;20056;-88
2021/03/10 13:21:07;;;;;;;9.27;6.47;;;10.90;57.30;;;;;;6246373;23;20027;-85
2021/03/10 13:23:40;;;;;;;10.05;7.03;;;11.10;56.30;;;;;;6246710;23;20103;-88
2021/03/10 13:26:08;;;;;;;;;;;11.50;54.30;;;;;;6247981;23;20024;-90
2021/03/10 13:28:36;;;;;;;10.07;6.68;;;11.60;54.30;;;;;;6247323;23;20244;-87
2021/03/10 13:31:06;;;;;;;9.80;6.53;;;11.50;56.20;;;;;;6222316;23;20051;-86
2021/03/10 13:33:34;;;;;;;12.20;7.40;;;11.40;56.40;;;;;;6227217;23;20028;-88
2021/03/10 13:36:05;;;;;;;9.60;6.72;;;11.50;55.20;;;;;;6223888;23;20028;-86
2021/03/10 13:38:34;;;;;;;12.57;7.68;;;11.50;54.00;;;;;;6247169;23;20050;-88
2021/03/10 13:41:00;;;;;;;13.55;8.05;;;11.30;54.40;;;;;;6246959;23;20020;-87
2021/03/10 13:43:28;;;;;;;10.23;7.38;;;11.10;55.30;;;;;;6244745;23;20028;-86
2021/03/10 13:45:54;;;;;;;11.35;7.53;;;11.00;55.70;;;;;;6247496;23;20024;-87
2021/03/10 13:48:24;;;;;;;11.52;7.20;;;11.10;55.90;;;;;;6246342;23;20031;-87
2021/03/10 13:50:51;;;;;;;12.00;6.85;;;11.20;55.40;;;;;;6246928;23;20020;-87